Time;durP1;ratioP1;P1;durP2;ratioP2;P2;SDS_P1;SDS_P2;PMS_P1;PMS_P2;Temp;Humidity;BMP_temperature;BMP_pressure;BME280_temperature;BME280_humidity;BME280_pressure;Samples;Min_cycle;Max_cycle;Signal;HPM_P1;HPM_P2
2023/09/30 00:00:15;;;;;;;;;;;25.20;60.80;;;;;;5087799;28;42924;-82
2023/09/30 00:02:41;;;;;;;;;;;25.20;60.60;;;;;;5087219;27;42799;-84
2023/09/30 00:05:06;;;;;;;;;;;24.90;60.30;;;;;;5087559;28;42903;-84
2023/09/30 00:07:32;;;;;;;;;;;25.00;60.50;;;;;;5087518;28;42945;-84
2023/09/30 00:09:58;;;;;;;;;;;25.00;60.90;;;;;;5087209;28;42966;-82
2023/09/30 00:12:24;;;;;;;;;;;24.90;61.30;;;;;;5087618;28;42892;-81
2023/09/30 00:14:49;;;;;;;;;;;25.00;60.50;;;;;;5087399;28;42968;-81
2023/09/30 00:17:15;;;;;;;;;;;25.00;60.30;;;;;;5087666;28;42774;-83
2023/09/30 00:19:40;;;;;;;;;;;25.20;60.70;;;;;;5087182;28;43101;-84
2023/09/30 00:22:06;;;;;;;;;;;25.10;60.20;;;;;;5086959;28;42965;-82
2023/09/30 00:24:32;;;;;;;;;;;25.50;61.10;;;;;;5086464;28;42959;-84
2023/09/30 00:26:57;;;;;;;;;;;25.00;60.60;;;;;;5086333;28;43449;-84
2023/09/30 00:29:23;;;;;;;;;;;25.10;60.70;;;;;;5083940;28;43182;-84
2023/09/30 00:31:48;;;;;;;;;;;25.10;60.70;;;;;;5086187;28;43786;-84
2023/09/30 00:34:14;;;;;;;;;;;25.20;60.70;;;;;;5087034;28;42895;-84
2023/09/30 00:36:39;;;;;;;;;;;25.20;60.80;;;;;;5086802;28;43150;-82
2023/09/30 00:39:07;;;;;;;;;;;25.10;60.90;;;;;;5087220;28;42778;-84
2023/09/30 00:41:33;;;;;;;;;;;25.20;60.80;;;;;;5087270;28;43529;-84
2023/09/30 00:43:59;;;;;;;;;;;25.00;60.60;;;;;;5086696;28;42954;-84
2023/09/30 00:46:35;;;;;;;;;;;25.00;60.50;;;;;;5086489;28;43513;-84
2023/09/30 00:49:02;;;;;;;;;;;25.10;58.40;;;;;;5085540;28;42995;-84
2023/09/30 00:51:28;;;;;;;;;;;25.20;61.10;;;;;;5085619;28;43736;-82
2023/09/30 00:53:56;;;;;;;;;;;25.20;60.40;;;;;;5086567;28;42882;-82
2023/09/30 00:56:25;;;;;;;;;;;24.90;60.30;;;;;;5085090;28;43815;-82
2023/09/30 00:58:51;;;;;;;;;;;25.20;60.60;;;;;;5086326;28;42902;-82
2023/09/30 01:01:18;;;;;;;;;;;25.00;60.20;;;;;;5086072;28;43368;-84
2023/09/30 01:03:44;;;;;;;;;;;25.00;60.10;;;;;;5086877;28;42988;-85
2023/09/30 01:06:09;;;;;;;;;;;24.80;60.00;;;;;;5086238;28;43503;-84
2023/09/30 01:08:35;;;;;;;;;;;24.90;60.20;;;;;;5086260;28;42932;-82
2023/09/30 01:11:01;;;;;;;;;;;24.80;60.40;;;;;;5085550;28;42938;-85
2023/09/30 01:13:33;;;;;;;;;;;24.90;59.40;;;;;;5084335;28;43014;-84
2023/09/30 01:16:02;;;;;;;;;;;24.80;57.20;;;;;;5085118;27;42911;-84
2023/09/30 01:18:28;;;;;;;;;;;25.40;59.30;;;;;;5086637;28;42899;-84
2023/09/30 01:20:54;;;;;;;;;;;25.00;59.90;;;;;;5086570;28;42823;-82
2023/09/30 01:23:20;;;;;;;;;;;24.90;58.90;;;;;;5086594;28;42835;-82
2023/09/30 01:25:45;;;;;;;;;;;25.00;59.20;;;;;;5086151;28;43663;-84
2023/09/30 01:28:11;;;;;;;;;;;25.00;59.00;;;;;;5081013;28;42933;-82
2023/09/30 01:30:36;;;;;;;;;;;25.10;59.00;;;;;;5085047;28;43548;-83
2023/09/30 01:33:02;;;;;;;;;;;24.90;59.00;;;;;;5084848;28;42890;-83
2023/09/30 01:35:27;;;;;;;;;;;25.00;59.00;;;;;;5086007;28;42982;-84
2023/09/30 01:37:53;;;;;;;;;;;24.90;59.20;;;;;;5085369;27;42972;-83
2023/09/30 01:40:18;;;;;;;;;;;24.90;58.60;;;;;;5085892;28;43507;-81
2023/09/30 01:42:44;;;;;;;;;;;24.90;58.40;;;;;;5085570;28;42926;-81
2023/09/30 01:45:10;;;;;;;;;;;25.10;58.90;;;;;;5085967;28;42894;-83
2023/09/30 01:47:36;;;;;;;;;;;24.90;59.00;;;;;;5085881;28;42930;-84
2023/09/30 01:50:01;;;;;;;;;;;25.10;59.10;;;;;;5086059;28;42940;-82
2023/09/30 01:52:27;;;;;;;;;;;25.00;58.60;;;;;;5085615;28;43067;-85
2023/09/30 01:54:54;;;;;;;;;;;24.70;58.70;;;;;;5085280;28;43378;-83
2023/09/30 01:57:19;;;;;;;;;;;25.00;58.80;;;;;;5084014;28;43011;-83
2023/09/30 01:59:45;;;;;;;;;;;24.80;59.10;;;;;;5085094;28;42989;-81
2023/09/30 02:02:10;;;;;;;;;;;24.80;58.90;;;;;;5083925;28;43006;-84
2023/09/30 02:04:36;;;;;;;;;;;24.80;59.00;;;;;;5085187;28;43003;-82
2023/09/30 02:07:02;;;;;;;;;;;24.90;59.60;;;;;;5085434;28;43047;-83
2023/09/30 02:09:28;;;;;;;;;;;24.70;59.10;;;;;;5085835;28;43693;-83
2023/09/30 02:11:54;;;;;;;;;;;24.70;59.10;;;;;;5085761;28;42999;-81
2023/09/30 02:14:20;;;;;;;;;;;24.80;58.70;;;;;;5085561;28;43129;-83
2023/09/30 02:16:45;;;;;;;;;;;24.80;59.20;;;;;;5099032;28;42205;-84
2023/09/30 02:19:12;;;;;;;;;;;24.90;59.00;;;;;;5099897;28;42871;-81
2023/09/30 02:21:38;;;;;;;;;;;25.00;58.90;;;;;;5094163;28;42823;-83
2023/09/30 02:24:06;;;;;;;;;;;24.90;58.80;;;;;;5089654;28;43857;-81
2023/09/30 02:26:32;;;;;;;;;;;24.90;58.30;;;;;;5086139;28;42974;-82
2023/09/30 02:28:58;;;;;;;;;;;24.90;58.80;;;;;;5085081;28;43555;-84
2023/09/30 02:31:23;;;;;;;;;;;24.90;59.00;;;;;;5085743;28;42908;-83
2023/09/30 02:33:49;;;;;;;;;;;24.70;58.80;;;;;;5085001;28;43435;-83
2023/09/30 02:36:15;;;;;;;;;;;24.90;59.20;;;;;;5085083;28;43054;-82
2023/09/30 02:38:41;;;;;;;;;;;24.70;59.40;;;;;;5082771;28;44444;-82
2023/09/30 02:41:07;;;;;;;;;;;24.60;59.30;;;;;;5085451;28;42960;-86
2023/09/30 02:43:32;;;;;;;;;;;24.80;59.20;;;;;;5085426;28;42927;-83
2023/09/30 02:45:58;;;;;;;;;;;24.80;59.20;;;;;;5083425;28;43200;-85
2023/09/30 02:48:23;;;;;;;;;;;24.80;59.10;;;;;;5085159;28;42954;-82
2023/09/30 02:50:49;;;;;;;;;;;24.80;59.10;;;;;;5085737;28;42931;-83
2023/09/30 02:53:15;;;;;;;;;;;24.80;58.60;;;;;;5085458;28;43113;-84
2023/09/30 02:55:41;;;;;;;;;;;24.80;59.00;;;;;;5085221;28;42900;-83
2023/09/30 02:58:08;;;;;;;;;;;24.80;59.10;;;;;;5085593;28;43012;-83
2023/09/30 03:00:33;;;;;;;;;;;24.80;59.10;;;;;;5085169;28;42976;-85
2023/09/30 03:03:00;;;;;;;;;;;24.80;59.20;;;;;;5084577;28;43982;-85
2023/09/30 03:05:27;;;;;;;;;;;24.90;59.30;;;;;;5081806;28;42881;-82
2023/09/30 03:07:52;;;;;;;;;;;24.90;59.30;;;;;;5070835;28;42951;-83
2023/09/30 03:10:23;;;;;;;;;;;25.00;59.40;;;;;;5064328;28;42780;-85
2023/09/30 03:12:52;;;;;;;;;;;24.80;58.80;;;;;;5063929;28;42946;-84
2023/09/30 03:15:18;;;;;;;;;;;24.80;57.30;;;;;;5064138;28;42903;-84
2023/09/30 03:17:43;;;;;;;;;;;24.90;59.40;;;;;;5064437;28;43059;-83
2023/09/30 03:20:14;;;;;;;;;;;24.80;59.40;;;;;;5065024;28;42945;-84
2023/09/30 03:22:40;;;;;;;;;;;25.20;58.80;;;;;;5064191;28;43747;-85
2023/09/30 03:25:06;;;;;;;;;;;24.90;59.60;;;;;;5072390;28;42937;-82
2023/09/30 03:27:33;;;;;;;;;;;24.80;59.30;;;;;;5084373;28;42874;-85
2023/09/30 03:29:58;;;;;;;;;;;24.90;59.70;;;;;;5083780;28;42892;-81
2023/09/30 03:32:24;;;;;;;;;;;24.70;59.50;;;;;;5083849;28;42952;-85
2023/09/30 03:34:52;;;;;;;;;;;24.90;59.80;;;;;;5084873;28;42845;-82
2023/09/30 03:37:17;;;;;;;;;;;24.70;59.30;;;;;;5096697;27;43503;-84
2023/09/30 03:39:43;;;;;;;;;;;24.90;59.90;;;;;;5107573;27;42945;-84
2023/09/30 03:42:11;;;;;;;;;;;24.90;59.80;;;;;;5108015;27;42931;-85
2023/09/30 03:44:37;;;;;;;;;;;24.80;59.80;;;;;;5107997;27;43175;-84
2023/09/30 03:47:03;;;;;;;;;;;24.70;59.70;;;;;;5108261;27;43099;-85
2023/09/30 03:49:28;;;;;;;;;;;24.70;59.30;;;;;;5108815;27;43136;-84
2023/09/30 03:51:54;;;;;;;;;;;24.80;60.70;;;;;;5108260;27;43071;-85
2023/09/30 03:54:19;;;;;;;;;;;24.80;60.30;;;;;;5107966;27;42861;-85
2023/09/30 03:56:46;;;;;;;;;;;24.80;59.70;;;;;;5107355;27;44367;-85
2023/09/30 03:59:12;;;;;;;;;;;24.80;60.00;;;;;;5108198;27;42827;-83
2023/09/30 04:01:40;;;;;;;;;;;24.70;59.80;;;;;;5095562;27;42862;-83
2023/09/30 04:04:07;;;;;;;;;;;24.70;59.70;;;;;;5087747;28;42985;-81
2023/09/30 04:06:32;;;;;;;;;;;24.90;59.70;;;;;;5086985;28;43463;-82
2023/09/30 04:08:59;;;;;;;;;;;24.90;60.10;;;;;;5084841;27;43034;-82
2023/09/30 04:11:25;;;;;;;;;;;24.80;59.90;;;;;;5068525;28;43013;-82
2023/09/30 04:13:50;;;;;;;;;;;24.80;61.10;;;;;;5089047;27;43071;-84
2023/09/30 04:16:18;;;;;;;;;;;24.80;60.90;;;;;;5107102;27;43933;-82
2023/09/30 04:18:44;;;;;;;;;;;24.80;60.30;;;;;;5107943;27;42858;-81
2023/09/30 04:21:09;;;;;;;;;;;24.80;60.20;;;;;;5106249;27;43739;-81
2023/09/30 04:23:38;;;;;;;;;;;24.70;60.30;;;;;;5106770;27;42950;-82
2023/09/30 04:26:05;;;;;;;;;;;24.80;60.10;;;;;;5084826;27;43201;-81
2023/09/30 04:28:30;;;;;;;;;;;25.00;60.40;;;;;;5086519;28;43016;-81
2023/09/30 04:30:56;;;;;;;;;;;25.20;60.40;;;;;;5085634;28;42900;-81
2023/09/30 04:33:24;;;;;;;;;;;24.80;60.30;;;;;;5068042;28;42956;-81
2023/09/30 04:35:49;;;;;;;;;;;24.70;60.30;;;;;;5085929;28;43429;-82
2023/09/30 04:38:15;;;;;;;;;;;24.80;60.40;;;;;;5086386;28;42764;-82
2023/09/30 04:40:43;;;;;;;;;;;24.80;60.30;;;;;;5085599;28;43451;-83
2023/09/30 04:43:09;;;;;;;;;;;24.80;59.90;;;;;;5085496;28;43127;-83
2023/09/30 04:45:34;;;;;;;;;;;24.70;60.50;;;;;;5085780;28;42996;-83
2023/09/30 04:48:02;;;;;;;;;;;24.80;60.70;;;;;;5085646;28;42900;-82
2023/09/30 04:50:27;;;;;;;;;;;24.80;60.50;;;;;;5115368;27;44413;-84
2023/09/30 04:52:53;;;;;;;;;;;24.70;60.00;;;;;;5085200;28;42752;-84
2023/09/30 04:55:19;;;;;;;;;;;24.80;60.60;;;;;;5084095;28;43810;-83
2023/09/30 04:57:46;;;;;;;;;;;24.80;62.40;;;;;;5085660;28;42985;-82
2023/09/30 05:00:13;;;;;;;;;;;24.70;62.70;;;;;;5093599;27;43112;-84
2023/09/30 05:02:39;;;;;;;;;;;24.80;62.80;;;;;;5078010;28;43099;-83
2023/09/30 05:05:06;;;;;;;;;;;24.80;62.70;;;;;;5095139;27;44997;-83
2023/09/30 05:07:32;;;;;;;;;;;24.80;62.60;;;;;;5087509;27;42903;-81
2023/09/30 05:09:59;;;;;;;;;;;24.90;62.70;;;;;;5097714;27;44755;-85
2023/09/30 05:12:25;;;;;;;;;;;24.50;62.40;;;;;;5092186;28;42821;-84
2023/09/30 05:14:51;;;;;;;;;;;24.90;63.50;;;;;;5090315;28;42767;-84
2023/09/30 05:17:16;;;;;;;;;;;25.10;63.50;;;;;;5086449;28;43061;-81
2023/09/30 05:19:42;;;;;;;;;;;24.80;63.40;;;;;;5084102;28;43095;-83
2023/09/30 05:22:07;;;;;;;;;;;24.80;62.80;;;;;;5084600;28;42938;-82
2023/09/30 05:24:34;;;;;;;;;;;25.00;63.50;;;;;;5085665;28;42982;-84
2023/09/30 05:27:01;;;;;;;;;;;24.90;63.30;;;;;;5084096;28;43236;-84
2023/09/30 05:29:27;;;;;;;;;;;24.80;63.30;;;;;;5085472;28;43738;-83
2023/09/30 05:31:52;;;;;;;;;;;24.70;63.20;;;;;;5083366;28;43268;-85
2023/09/30 05:34:18;;;;;;;;;;;24.70;62.70;;;;;;5086153;28;42925;-82
2023/09/30 05:36:43;;;;;;;;;;;24.60;63.30;;;;;;5085133;28;43044;-83
2023/09/30 05:39:10;;;;;;;;;;;24.70;62.80;;;;;;5083615;28;43374;-84
2023/09/30 05:41:37;;;;;;;;;;;24.70;62.80;;;;;;5047229;28;42984;-82
2023/09/30 05:44:03;;;;;;;;;;;24.50;62.60;;;;;;5063606;28;43409;-83
2023/09/30 05:46:30;;;;;;;;;;;24.70;63.20;;;;;;5056051;28;43029;-84
2023/09/30 05:48:56;;;;;;;;;;;24.60;63.20;;;;;;5055271;28;43453;-84
2023/09/30 05:51:21;;;;;;;;;;;24.60;63.20;;;;;;5059286;28;43050;-83
2023/09/30 05:53:48;;;;;;;;;;;24.70;63.40;;;;;;5039169;28;44875;-85
2023/09/30 05:56:15;;;;;;;;;;;24.60;62.90;;;;;;5061706;28;42900;-82
2023/09/30 05:58:41;;;;;;;;;;;24.80;62.50;;;;;;5059194;28;43601;-81
2023/09/30 06:01:15;;;;;;;;;;;24.70;62.60;;;;;;5053080;28;43111;-82
2023/09/30 06:03:41;;;;;;;;;;;24.60;60.70;;;;;;5052892;28;43614;-82
2023/09/30 06:06:13;;;;;;;;;;;24.60;63.30;;;;;;5056021;28;43473;-82
2023/09/30 06:08:39;;;;;;;;;;;24.70;60.90;;;;;;5058329;28;43519;-82
2023/09/30 06:11:04;;;;;;;;;;;24.70;63.40;;;;;;5054178;28;42934;-84
2023/09/30 06:13:32;;;;;;;;;;;24.50;63.50;;;;;;5056500;28;42963;-83
2023/09/30 06:15:58;;;;;;;;;;;24.40;63.60;;;;;;5058803;28;44181;-82
2023/09/30 06:18:24;;;;;;;;;;;24.60;63.80;;;;;;5059415;28;42972;-85
2023/09/30 06:20:50;;;;;;;;;;;24.50;63.30;;;;;;5053485;28;42995;-86
2023/09/30 06:23:16;;;;;;;;;;;24.60;63.20;;;;;;5052454;28;43062;-86
2023/09/30 06:25:42;;;;;;;;;;;24.60;63.70;;;;;;5058055;28;43235;-85
2023/09/30 06:28:08;;;;;;;;;;;24.40;63.50;;;;;;5052452;28;43378;-86
2023/09/30 06:30:34;;;;;;;;;;;24.40;63.30;;;;;;5044624;28;42935;-87
2023/09/30 06:33:00;;;;;;;;;;;24.40;64.00;;;;;;5050470;28;43145;-84
2023/09/30 06:35:30;;;;;;;;;;;24.50;65.00;;;;;;5058555;28;42942;-87
2023/09/30 06:37:55;;;;;;;;;;;24.10;64.20;;;;;;5073770;28;45271;-84
2023/09/30 06:40:22;;;;;;;;;;;24.30;64.40;;;;;;5084729;28;42910;-87
2023/09/30 06:42:47;;;;;;;;;;;24.40;64.30;;;;;;5084404;28;42873;-88
2023/09/30 06:45:13;;;;;;;;;;;24.20;64.70;;;;;;5084536;28;42861;-84
2023/09/30 06:47:39;;;;;;;;;;;24.40;64.70;;;;;;5082350;28;44302;-80
2023/09/30 06:50:08;;;;;;;;;;;24.50;64.40;;;;;;5084669;28;42878;-84
2023/09/30 06:52:34;;;;;;;;;;;24.50;62.50;;;;;;5084576;28;43277;-84
2023/09/30 06:55:00;;;;;;;;;;;24.60;64.30;;;;;;5084290;28;43082;-85
2023/09/30 06:57:25;;;;;;;;;;;24.70;62.30;;;;;;5084020;28;43099;-87
2023/09/30 06:59:51;;;;;;;;;;;24.50;63.30;;;;;;5084074;28;43063;-88
2023/09/30 07:02:16;;;;;;;;;;;24.60;63.60;;;;;;5084261;28;42976;-84
2023/09/30 07:04:42;;;;;;;;;;;24.60;63.60;;;;;;5085180;28;42838;-85
2023/09/30 07:07:07;;;;;;;;;;;24.40;63.50;;;;;;5108531;27;44892;-87
2023/09/30 07:09:33;;;;;;;;;;;24.60;63.50;;;;;;5083095;28;42829;-86
2023/09/30 07:11:58;;;;;;;;;;;24.60;63.40;;;;;;5084111;27;43356;-85
2023/09/30 07:14:24;;;;;;;;;;;24.70;63.50;;;;;;5087073;28;43019;-86
2023/09/30 07:16:49;;;;;;;;;;;24.70;63.60;;;;;;5086951;28;43611;-87
2023/09/30 07:19:15;;;;;;;;;;;24.50;62.90;;;;;;5087978;28;43673;-85
2023/09/30 07:21:40;;;;;;;;;;;24.80;63.00;;;;;;5083334;28;42973;-87
2023/09/30 07:24:06;;;;;;;;;;;24.70;64.60;;;;;;5084553;28;42833;-86
2023/09/30 07:26:31;;;;;;;;;;;24.60;64.30;;;;;;5087843;28;43013;-88
2023/09/30 07:28:58;;;;;;;;;;;24.70;65.10;;;;;;5085014;28;42959;-84
2023/09/30 07:31:23;;;;;;;;;;;24.50;64.80;;;;;;5087380;28;42890;-84
2023/09/30 07:33:49;;;;;;;;;;;24.70;65.00;;;;;;5086833;28;42849;-85
2023/09/30 07:36:15;;;;;;;;;;;24.70;65.10;;;;;;5086438;28;43967;-83
2023/09/30 07:38:40;;;;;;;;;;;24.70;64.80;;;;;;5085718;27;43083;-83
2023/09/30 07:41:06;;;;;;;;;;;24.70;64.60;;;;;;5086215;28;42970;-82
2023/09/30 07:43:31;;;;;;;;;;;24.70;64.50;;;;;;5087102;28;42973;-83
2023/09/30 07:45:57;;;;;;;;;;;24.70;64.00;;;;;;5086732;28;43032;-84
2023/09/30 07:48:22;;;;;;;;;;;24.70;63.80;;;;;;5086259;28;43075;-83
2023/09/30 07:50:48;;;;;;;;;;;24.70;64.00;;;;;;5088707;28;42914;-83
2023/09/30 07:53:14;;;;;;;;;;;24.70;63.30;;;;;;5099097;28;43028;-84
2023/09/30 07:55:39;;;;;;;;;;;24.70;63.00;;;;;;5097523;28;42885;-83
2023/09/30 07:58:05;;;;;;;;;;;24.70;63.50;;;;;;5095202;28;42909;-83
2023/09/30 08:00:33;;;;;;;;;;;24.70;63.20;;;;;;5088872;28;42902;-83
2023/09/30 08:03:00;;;;;;;;;;;24.80;62.90;;;;;;5087642;28;43243;-83
2023/09/30 08:05:26;;;;;;;;;;;24.60;62.60;;;;;;5087080;28;42961;-83
2023/09/30 08:07:51;;;;;;;;;;;24.60;63.30;;;;;;5087724;28;42858;-83
2023/09/30 08:10:17;;;;;;;;;;;24.80;63.10;;;;;;5084955;28;42962;-83
2023/09/30 08:12:46;;;;;;;;;;;24.80;62.80;;;;;;5090059;27;43104;-81
2023/09/30 08:15:14;;;;;;;;;;;24.70;62.60;;;;;;5096630;27;42977;-82
2023/09/30 08:17:40;;;;;;;;;;;24.70;61.40;;;;;;5091218;27;42927;-80
2023/09/30 08:20:09;;;;;;;;;;;24.60;63.10;;;;;;5094466;27;45319;-80
2023/09/30 08:22:35;;;;;;;;;;;24.70;63.00;;;;;;5093368;27;43098;-82
2023/09/30 08:25:00;;;;;;;;;;;24.70;63.00;;;;;;5079648;28;43644;-82
2023/09/30 08:27:26;;;;;;;;;;;24.70;62.40;;;;;;5095859;27;43343;-80
2023/09/30 08:29:52;;;;;;;;;;;24.70;62.70;;;;;;5087155;28;43438;-80
2023/09/30 08:32:17;;;;;;;;;;;24.70;62.70;;;;;;5086456;28;42920;-81
2023/09/30 08:34:43;;;;;;;;;;;24.60;62.70;;;;;;5086253;28;43023;-81
2023/09/30 08:37:09;;;;;;;;;;;24.60;62.70;;;;;;5083958;27;43035;-82
2023/09/30 08:39:37;;;;;;;;;;;24.60;62.70;;;;;;5086482;28;43608;-81
2023/09/30 08:42:06;;;;;;;;;;;24.70;62.70;;;;;;5084040;28;42932;-82
2023/09/30 08:44:31;;;;;;;;;;;24.80;62.70;;;;;;5086078;27;42890;-82
2023/09/30 08:46:57;;;;;;;;;;;24.70;63.00;;;;;;5086887;28;43055;-82
2023/09/30 08:49:24;;;;;;;;;;;24.80;63.00;;;;;;5085650;27;43052;-83
2023/09/30 08:51:50;;;;;;;;;;;24.90;62.90;;;;;;5086093;28;43043;-82
2023/09/30 08:54:16;;;;;;;;;;;24.80;62.70;;;;;;5085477;28;43372;-81
2023/09/30 08:56:44;;;;;;;;;;;24.70;62.60;;;;;;5085636;28;43145;-81
2023/09/30 08:59:11;;;;;;;;;;;24.60;62.70;;;;;;5086262;28;42917;-83
2023/09/30 09:01:37;;;;;;;;;;;24.60;62.90;;;;;;5086584;28;43052;-82
2023/09/30 09:04:03;;;;;;;;;;;24.70;62.90;;;;;;5086558;28;43004;-81
2023/09/30 09:06:29;;;;;;;;;;;24.80;62.90;;;;;;5085196;28;42940;-82
2023/09/30 09:09:12;;;;;;;;;;;24.80;62.60;;;;;;5085200;28;43808;-82
2023/09/30 09:11:37;;;;;;;;;;;24.90;62.40;;;;;;5085353;28;42973;-82
2023/09/30 09:14:04;;;;;;;;;;;24.90;61.80;;;;;;5085678;28;43061;-81
2023/09/30 09:16:30;;;;;;;;;;;25.00;61.80;;;;;;5110889;27;42940;-82
2023/09/30 09:18:56;;;;;;;;;;;24.90;61.70;;;;;;5085386;28;43275;-83
2023/09/30 09:21:23;;;;;;;;;;;24.90;62.00;;;;;;5114850;27;43044;-83
2023/09/30 09:23:49;;;;;;;;;;;24.90;61.90;;;;;;5085914;28;43973;-82
2023/09/30 09:26:15;;;;;;;;;;;24.80;62.00;;;;;;5085818;28;43017;-81
2023/09/30 09:28:42;;;;;;;;;;;24.90;62.00;;;;;;5085769;28;43556;-82
2023/09/30 09:31:23;;;;;;;;;;;24.90;62.00;;;;;;5086197;28;42983;-82
2023/09/30 09:33:53;;;;;;;;;;;25.00;60.00;;;;;;5083571;28;43895;-82
2023/09/30 09:36:19;;;;;;;;;;;25.20;60.20;;;;;;5085101;27;43049;-81
2023/09/30 09:38:45;;;;;;;;;;;24.80;62.10;;;;;;5085427;28;42909;-82
2023/09/30 09:41:11;;;;;;;;;;;24.90;61.80;;;;;;5085676;28;43017;-86
2023/09/30 09:43:37;;;;;;;;;;;24.10;61.00;;;;;;5085057;28;43826;-80
2023/09/30 09:46:07;;;;;;;;;;;24.90;61.70;;;;;;5084949;28;42989;-79
2023/09/30 09:48:34;;;;;;;;;;;24.80;60.40;;;;;;5084993;28;42851;-79
2023/09/30 09:51:01;;;;;;;;;;;25.00;62.10;;;;;;5085299;28;43002;-81
2023/09/30 09:53:30;;;;;;;;;;;24.80;61.50;;;;;;5084013;28;43343;-83
2023/09/30 09:55:56;;;;;;;;;;;24.90;61.80;;;;;;5083677;28;43177;-78
2023/09/30 09:58:23;;;;;;;;;;;24.90;61.90;;;;;;5083274;28;43861;-80
2023/09/30 10:00:49;;;;;;;;;;;24.90;61.20;;;;;;5084648;28;42978;-80
2023/09/30 10:03:14;;;;;;;;;;;24.90;61.60;;;;;;5082850;28;43030;-78
2023/09/30 10:05:40;;;;;;;;;;;25.00;61.60;;;;;;5084802;28;43035;-81
2023/09/30 10:08:08;;;;;;;;;;;24.90;60.90;;;;;;5085422;28;43029;-83
2023/09/30 10:10:37;;;;;;;;;;;25.00;61.70;;;;;;5083291;28;43505;-79
2023/09/30 10:13:03;;;;;;;;;;;25.10;59.20;;;;;;5082845;28;43553;-79
2023/09/30 10:15:30;;;;;;;;;;;25.10;61.30;;;;;;5081858;28;43145;-82
2023/09/30 10:17:59;;;;;;;;;;;24.90;61.40;;;;;;5084773;28;43321;-81
2023/09/30 10:20:29;;;;;;;;;;;24.90;59.40;;;;;;5081956;28;42902;-83
2023/09/30 10:23:13;;;;;;;;;;;24.90;59.30;;;;;;5084210;28;43634;-83
2023/09/30 10:25:46;;;;;;;;;;;25.10;59.40;;;;;;5083109;27;43504;-82
2023/09/30 10:28:31;;;;;;;;;;;24.90;59.80;;;;;;5083426;28;43121;-83
2023/09/30 10:31:08;;;;;;;;;;;25.00;59.40;;;;;;5083846;28;43057;-84
2023/09/30 10:33:33;;;;;;;;;;;25.20;59.50;;;;;;5081668;28;43886;-82
2023/09/30 10:36:00;;;;;;;;;;;25.00;61.60;;;;;;5073244;28;43473;-83
2023/09/30 10:38:28;;;;;;;;;;;25.00;61.50;;;;;;5080533;28;43573;-83
2023/09/30 10:40:54;;;;;;;;;;;25.10;59.30;;;;;;5112579;27;42975;-82
2023/09/30 10:43:28;;;;;;;;;;;24.90;61.00;;;;;;5083547;28;42977;-83
2023/09/30 10:45:54;;;;;;;;;;;25.00;59.30;;;;;;5089138;28;42925;-81
2023/09/30 10:48:30;;;;;;;;;;;24.90;61.90;;;;;;5091973;27;43280;-81
2023/09/30 10:50:58;;;;;;;;;;;25.00;59.30;;;;;;5087599;28;43493;-82
2023/09/30 10:53:25;;;;;;;;;;;25.00;61.50;;;;;;5086167;27;42941;-82
2023/09/30 10:55:54;;;;;;;;;;;25.10;60.90;;;;;;5087514;28;42888;-80
2023/09/30 10:58:20;;;;;;;;;;;25.00;58.90;;;;;;5078726;28;43410;-80
2023/09/30 11:00:55;;;;;;;;;;;25.10;60.60;;;;;;5086012;28;42930;-80
2023/09/30 11:03:21;;;;;;;;;;;25.10;58.70;;;;;;5086728;28;43036;-80
2023/09/30 11:05:51;;;;;;;;;;;25.10;60.90;;;;;;5088307;28;42934;-82
2023/09/30 11:08:17;;;;;;;;;;;25.10;59.30;;;;;;5086004;28;43527;-82
2023/09/30 11:10:50;;;;;;;;;;;25.10;61.10;;;;;;5086048;28;42837;-84
2023/09/30 11:13:16;;;;;;;;;;;25.20;59.60;;;;;;5084537;28;44997;-81
2023/09/30 11:15:42;;;;;;;;;;;25.10;61.90;;;;;;5085323;28;42969;-81
2023/09/30 11:18:14;;;;;;;;;;;25.40;61.80;;;;;;5085407;28;42953;-84
2023/09/30 11:20:39;;;;;;;;;;;25.60;60.10;;;;;;5084836;28;42891;-83
2023/09/30 11:23:06;;;;;;;;;;;25.10;61.50;;;;;;5081926;28;44521;-82
2023/09/30 11:25:34;;;;;;;;;;;25.00;61.70;;;;;;5082148;28;43144;-81
2023/09/30 11:28:16;;;;;;;;;;;25.10;61.90;;;;;;5107152;27;44533;-83
2023/09/30 11:30:58;;;;;;;;;;;25.10;60.10;;;;;;5086654;28;42957;-84
2023/09/30 11:33:24;;;;;;;;;;;24.90;59.70;;;;;;5087038;28;43416;-82
2023/09/30 11:36:05;;;;;;;;;;;24.80;62.10;;;;;;5087033;27;43038;-80
2023/09/30 11:38:31;;;;;;;;;;;25.10;59.70;;;;;;5086985;28;44115;-82
2023/09/30 11:41:05;;;;;;;;;;;25.10;62.00;;;;;;5087323;27;43368;-81
2023/09/30 11:43:34;;;;;;;;;;;25.10;59.70;;;;;;5087468;28;43181;-81
2023/09/30 11:46:08;;;;;;;;;;;25.10;59.60;;;;;;5086632;28;43024;-82
2023/09/30 11:48:35;;;;;;;;;;;25.20;59.80;;;;;;5084883;28;44937;-81
2023/09/30 11:51:02;;;;;;;;;;;25.00;61.90;;;;;;5086541;28;42945;-81
2023/09/30 11:53:31;;;;;;;;;;;25.20;61.60;;;;;;5084498;28;43525;-82
2023/09/30 11:55:58;;;;;;;;;;;25.30;59.80;;;;;;5086188;28;43101;-82
2023/09/30 11:58:25;;;;;;;;;;;25.80;62.40;;;;;;5085360;27;43004;-83
2023/09/30 12:00:53;;;;;;;;;;;25.10;62.00;;;;;;5086177;28;43180;-82
2023/09/30 12:03:20;;;;;;;;;;;25.10;61.60;;;;;;5086658;28;42852;-83
2023/09/30 12:05:45;;;;;;;;;;;25.30;62.20;;;;;;5086805;28;42945;-81
2023/09/30 12:08:11;;;;;;;;;;;25.20;61.70;;;;;;5086546;27;42936;-82
2023/09/30 12:10:37;;;;;;;;;;;25.20;62.10;;;;;;5087320;28;43025;-82
2023/09/30 12:13:03;;;;;;;;;;;25.20;62.10;;;;;;5085179;28;44972;-82
2023/09/30 12:15:28;;;;;;;;;;;25.40;62.00;;;;;;5086077;28;44101;-81
2023/09/30 12:17:54;;;;;;;;;;;24.70;61.90;;;;;;5085949;27;43432;-81
2023/09/30 12:20:20;;;;;;;;;;;25.10;62.40;;;;;;5085806;27;42983;-79
2023/09/30 12:22:46;;;;;;;;;;;25.10;61.80;;;;;;5084917;28;44242;-81
2023/09/30 12:25:11;;;;;;;;;;;25.10;62.80;;;;;;5085387;28;42933;-81
2023/09/30 12:27:39;;;;;;;;;;;25.10;62.60;;;;;;5084369;28;43013;-84
2023/09/30 12:30:12;;;;;;;;;;;25.10;62.60;;;;;;5082979;28;43025;-83
2023/09/30 12:32:39;;;;;;;;;;;25.20;61.80;;;;;;5085117;28;43159;-83
2023/09/30 12:35:05;;;;;;;;;;;25.00;62.60;;;;;;5085963;28;42973;-84
2023/09/30 12:37:30;;;;;;;;;;;25.20;62.20;;;;;;5084818;27;42993;-83
2023/09/30 12:39:56;;;;;;;;;;;25.20;62.10;;;;;;5085957;28;42902;-83
2023/09/30 12:42:21;;;;;;;;;;;25.20;62.70;;;;;;5087226;28;43475;-83
2023/09/30 12:44:47;;;;;;;;;;;25.10;62.20;;;;;;5086686;28;43033;-83
2023/09/30 12:47:13;;;;;;;;;;;25.40;63.10;;;;;;5085424;28;43648;-83
2023/09/30 12:49:38;;;;;;;;;;;25.30;62.40;;;;;;5084750;28;43039;-83
2023/09/30 12:52:07;;;;;;;;;;;25.30;62.40;;;;;;5085753;28;43154;-82
2023/09/30 12:54:34;;;;;;;;;;;25.20;60.20;;;;;;5085153;28;43044;-84
2023/09/30 13:00:15;;;;;;;;;;;25.20;59.90;;;;;;5085689;28;43056;-83
2023/09/30 13:02:44;;;;;;;;;;;25.20;59.90;;;;;;5086550;28;42822;-84
2023/09/30 13:05:10;;;;;;;;;;;;;;;;;;5086462;28;43022;-83
2023/09/30 13:07:42;;;;;;;;;;;25.20;62.30;;;;;;5084530;28;43915;-84
2023/09/30 13:10:08;;;;;;;;;;;25.40;59.90;;;;;;5085956;28;43008;-83
2023/09/30 13:12:33;;;;;;;;;;;25.30;62.50;;;;;;5086243;28;43840;-83
2023/09/30 13:15:02;;;;;;;;;;;25.30;62.30;;;;;;5086062;28;43304;-83
2023/09/30 13:17:28;;;;;;;;;;;25.30;59.80;;;;;;5084695;28;44578;-83
2023/09/30 13:19:54;;;;;;;;;;;25.10;62.00;;;;;;5086614;28;42782;-83
2023/09/30 13:22:23;;;;;;;;;;;25.30;62.00;;;;;;5084747;28;44403;-83
2023/09/30 13:24:48;;;;;;;;;;;25.20;59.80;;;;;;5084204;28;42966;-83
2023/09/30 13:27:20;;;;;;;;;;;25.30;61.90;;;;;;5086174;28;42970;-83
2023/09/30 13:29:46;;;;;;;;;;;25.20;59.30;;;;;;5085598;28;42879;-83
2023/09/30 13:32:19;;;;;;;;;;;25.30;61.40;;;;;;5087505;28;43850;-83
2023/09/30 13:34:45;;;;;;;;;;;25.30;61.10;;;;;;5095517;28;43033;-83
2023/09/30 13:37:10;;;;;;;;;;;25.40;60.80;;;;;;5098421;28;42763;-83
2023/09/30 13:39:36;;;;;;;;;;;25.50;60.90;;;;;;5081070;28;42976;-83
2023/09/30 13:42:02;;;;;;;;;;;25.70;60.70;;;;;;5091421;28;43004;-83
2023/09/30 13:44:31;;;;;;;;;;;25.50;60.20;;;;;;5067954;28;43059;-83
2023/09/30 13:46:56;;;;;;;;;;;25.50;58.10;;;;;;5085822;28;42949;-83
2023/09/30 13:49:22;;;;;;;;;;;25.30;60.00;;;;;;5085654;28;42903;-83
2023/09/30 13:51:47;;;;;;;;;;;25.60;60.00;;;;;;5085077;28;43428;-83
2023/09/30 13:54:15;;;;;;;;;;;25.60;59.50;;;;;;5085244;28;43068;-82
2023/09/30 13:56:46;;;;;;;;;;;25.50;57.30;;;;;;5085823;28;43687;-83
2023/09/30 13:59:14;;;;;;;;;;;25.60;59.10;;;;;;5085963;28;43638;-82
2023/09/30 14:01:48;;;;;;;;;;;25.40;59.00;;;;;;5085921;28;43128;-82
2023/09/30 14:04:16;;;;;;;;;;;25.30;58.80;;;;;;5085646;28;42922;-83
2023/09/30 14:06:42;;;;;;;;;;;25.70;57.00;;;;;;5066870;28;43866;-83
2023/09/30 14:09:14;;;;;;;;;;;25.50;58.70;;;;;;5085453;28;42926;-83
2023/09/30 14:11:41;;;;;;;;;;;25.50;58.70;;;;;;5066249;28;44201;-83
2023/09/30 14:14:11;;;;;;;;;;;25.50;58.80;;;;;;5067150;28;42966;-83
2023/09/30 14:16:37;;;;;;;;;;;26.10;57.60;;;;;;5085140;28;42845;-83
2023/09/30 14:19:03;;;;;;;;;;;25.60;58.40;;;;;;5085218;28;42857;-83